sensor_id;sensor_type;location;lat;lon;timestamp;pressure;altitude;pressure_sealevel;temperature;humidity
27429;BME280;14881;48.092;11.574;2023-11-19T00:00:48;95566.75;;;3.87;100.00
27429;BME280;14881;48.092;11.574;2023-11-19T00:03:17;95566.97;;;3.85;100.00
27429;BME280;14881;48.092;11.574;2023-11-19T00:05:45;95562.91;;;3.83;100.00
27429;BME280;14881;48.092;11.574;2023-11-19T00:08:11;95558.34;;;3.83;100.00
27429;BME280;14881;48.092;11.574;2023-11-19T00:10:37;95550.13;;;3.90;100.00
27429;BME280;14881;48.092;11.574;2023-11-19T00:13:04;95546.63;;;3.90;100.00
27429;BME280;14881;48.092;11.574;2023-11-19T00:15:30;95542.63;;;3.92;100.00
27429;BME280;14881;48.092;11.574;2023-11-19T00:17:56;95530.19;;;3.86;100.00
27429;BME280;14881;48.092;11.574;2023-11-19T00:20:27;95526.19;;;3.89;100.00
27429;BME280;14881;48.092;11.574;2023-11-19T00:22:55;95532.22;;;3.96;100.00
27429;BME280;14881;48.092;11.574;2023-11-19T00:25:21;95516.13;;;4.01;100.00
27429;BME280;14881;48.092;11.574;2023-11-19T00:27:48;95520.69;;;4.00;100.00
27429;BME280;14881;48.092;11.574;2023-11-19T00:30:16;95515.06;;;4.02;100.00
27429;BME280;14881;48.092;11.574;2023-11-19T00:32:42;95514.91;;;4.08;100.00
27429;BME280;14881;48.092;11.574;2023-11-19T00:35:09;95517.28;;;4.05;100.00
27429;BME280;14881;48.092;11.574;2023-11-19T00:37:36;95506.59;;;4.10;100.00
27429;BME280;14881;48.092;11.574;2023-11-19T00:40:04;95492.28;;;4.04;100.00
27429;BME280;14881;48.092;11.574;2023-11-19T00:42:31;95501.63;;;4.02;100.00
27429;BME280;14881;48.092;11.574;2023-11-19T00:44:57;95501.16;;;4.05;100.00
27429;BME280;14881;48.092;11.574;2023-11-19T00:47:24;95498.28;;;4.11;100.00
27429;BME280;14881;48.092;11.574;2023-11-19T00:49:51;95489.41;;;4.11;100.00
27429;BME280;14881;48.092;11.574;2023-11-19T00:52:17;95487.56;;;4.16;100.00
27429;BME280;14881;48.092;11.574;2023-11-19T00:54:44;95489.84;;;4.25;100.00
27429;BME280;14881;48.092;11.574;2023-11-19T00:57:11;95482.84;;;4.24;100.00
27429;BME280;14881;48.092;11.574;2023-11-19T00:59:38;95483.75;;;4.34;100.00
27429;BME280;14881;48.092;11.574;2023-11-19T01:02:07;95485.97;;;4.37;100.00
27429;BME280;14881;48.092;11.574;2023-11-19T01:04:33;95494.34;;;4.41;100.00
27429;BME280;14881;48.092;11.574;2023-11-19T01:07:01;95485.78;;;4.44;100.00
27429;BME280;14881;48.092;11.574;2023-11-19T01:09:29;95491.72;;;4.46;100.00
27429;BME280;14881;48.092;11.574;2023-11-19T01:11:58;95489.06;;;4.51;100.00
27429;BME280;14881;48.092;11.574;2023-11-19T01:14:25;95484.50;;;4.51;100.00
27429;BME280;14881;48.092;11.574;2023-11-19T01:16:51;95470.56;;;4.54;100.00
27429;BME280;14881;48.092;11.574;2023-11-19T01:19:19;95471.63;;;4.53;100.00
27429;BME280;14881;48.092;11.574;2023-11-19T01:21:46;95474.81;;;4.50;100.00
27429;BME280;14881;48.092;11.574;2023-11-19T01:24:13;95484.81;;;4.55;100.00
27429;BME280;14881;48.092;11.574;2023-11-19T01:26:40;95469.88;;;4.64;100.00
27429;BME280;14881;48.092;11.574;2023-11-19T01:29:11;95473.41;;;4.70;100.00
27429;BME280;14881;48.092;11.574;2023-11-19T01:31:40;95467.53;;;4.73;100.00
27429;BME280;14881;48.092;11.574;2023-11-19T01:34:06;95463.25;;;4.77;100.00
27429;BME280;14881;48.092;11.574;2023-11-19T01:36:33;95468.16;;;4.80;100.00
27429;BME280;14881;48.092;11.574;2023-11-19T01:38:59;95449.56;;;4.78;100.00
27429;BME280;14881;48.092;11.574;2023-11-19T01:41:25;95455.53;;;4.85;100.00
27429;BME280;14881;48.092;11.574;2023-11-19T01:43:52;95455.03;;;4.88;100.00
27429;BME280;14881;48.092;11.574;2023-11-19T01:46:18;95441.06;;;4.92;100.00
27429;BME280;14881;48.092;11.574;2023-11-19T01:48:46;95443.03;;;5.01;100.00
27429;BME280;14881;48.092;11.574;2023-11-19T01:51:13;95438.47;;;5.02;100.00
27429;BME280;14881;48.092;11.574;2023-11-19T01:53:49;95434.47;;;5.09;100.00
27429;BME280;14881;48.092;11.574;2023-11-19T01:56:16;95435.56;;;5.08;100.00
27429;BME280;14881;48.092;11.574;2023-11-19T01:58:43;95441.84;;;5.19;100.00
27429;BME280;14881;48.092;11.574;2023-11-19T02:01:11;95437.28;;;5.19;100.00
27429;BME280;14881;48.092;11.574;2023-11-19T02:03:38;95427.34;;;5.25;100.00
27429;BME280;14881;48.092;11.574;2023-11-19T02:06:07;95420.63;;;5.28;100.00
27429;BME280;14881;48.092;11.574;2023-11-19T02:08:36;95409.59;;;5.29;100.00
27429;BME280;14881;48.092;11.574;2023-11-19T02:11:03;95411.53;;;5.39;100.00
27429;BME280;14881;48.092;11.574;2023-11-19T02:13:29;95396.22;;;5.44;100.00
27429;BME280;14881;48.092;11.574;2023-11-19T02:15:56;95393.31;;;5.56;100.00
27429;BME280;14881;48.092;11.574;2023-11-19T02:18:23;95386.94;;;5.67;100.00
27429;BME280;14881;48.092;11.574;2023-11-19T02:20:53;95380.53;;;5.78;100.00
27429;BME280;14881;48.092;11.574;2023-11-19T02:23:21;95371.94;;;5.86;100.00
27429;BME280;14881;48.092;11.574;2023-11-19T02:26:07;95365.78;;;5.91;100.00
27429;BME280;14881;48.092;11.574;2023-11-19T02:28:38;95368.78;;;6.00;100.00
27429;BME280;14881;48.092;11.574;2023-11-19T02:31:05;95359.91;;;6.09;100.00
27429;BME280;14881;48.092;11.574;2023-11-19T02:33:32;95351.03;;;6.14;100.00
27429;BME280;14881;48.092;11.574;2023-11-19T02:35:58;95349.44;;;6.23;100.00
27429;BME280;14881;48.092;11.574;2023-11-19T02:38:25;95338.38;;;6.24;100.00
27429;BME280;14881;48.092;11.574;2023-11-19T02:40:51;95345.41;;;6.31;100.00
27429;BME280;14881;48.092;11.574;2023-11-19T02:43:18;95344.34;;;6.37;100.00
27429;BME280;14881;48.092;11.574;2023-11-19T02:45:45;95349.47;;;6.43;100.00
27429;BME280;14881;48.092;11.574;2023-11-19T02:48:12;95349.50;;;6.48;100.00
27429;BME280;14881;48.092;11.574;2023-11-19T02:50:40;95342.47;;;6.52;100.00
27429;BME280;14881;48.092;11.574;2023-11-19T02:53:07;95334.91;;;6.59;100.00
27429;BME280;14881;48.092;11.574;2023-11-19T02:55:33;95333.31;;;6.63;100.00
27429;BME280;14881;48.092;11.574;2023-11-19T02:58:03;95320.63;;;6.64;100.00
27429;BME280;14881;48.092;11.574;2023-11-19T03:00:35;95313.06;;;6.66;100.00
27429;BME280;14881;48.092;11.574;2023-11-19T03:03:03;95300.38;;;6.67;100.00
27429;BME280;14881;48.092;11.574;2023-11-19T03:05:43;95314.41;;;6.63;100.00
27429;BME280;14881;48.092;11.574;2023-11-19T03:08:10;95307.41;;;6.68;100.00
27429;BME280;14881;48.092;11.574;2023-11-19T03:10:49;95305.53;;;6.68;100.00
27429;BME280;14881;48.092;11.574;2023-11-19T03:13:15;95316.59;;;6.67;100.00
27429;BME280;14881;48.092;11.574;2023-11-19T03:15:42;95306.34;;;6.74;100.00
27429;BME280;14881;48.092;11.574;2023-11-19T03:18:10;95303.09;;;6.72;100.00
27429;BME280;14881;48.092;11.574;2023-11-19T03:20:36;95293.66;;;6.74;100.00
27429;BME280;14881;48.092;11.574;2023-11-19T03:23:02;95302.81;;;6.78;100.00
27429;BME280;14881;48.092;11.574;2023-11-19T03:25:29;95300.66;;;6.80;100.00
27429;BME280;14881;48.092;11.574;2023-11-19T03:27:59;95302.81;;;6.83;100.00
27429;BME280;14881;48.092;11.574;2023-11-19T03:30:26;95296.06;;;6.86;100.00
27429;BME280;14881;48.092;11.574;2023-11-19T03:32:57;95303.38;;;6.90;100.00
27429;BME280;14881;48.092;11.574;2023-11-19T03:35:24;95299.59;;;6.91;100.00
27429;BME280;14881;48.092;11.574;2023-11-19T03:37:51;95297.13;;;6.95;100.00
27429;BME280;14881;48.092;11.574;2023-11-19T03:40:17;95293.88;;;6.98;100.00
27429;BME280;14881;48.092;11.574;2023-11-19T03:42:45;95290.66;;;7.01;100.00
27429;BME280;14881;48.092;11.574;2023-11-19T03:45:11;95297.41;;;7.04;100.00
27429;BME280;14881;48.092;11.574;2023-11-19T03:47:38;95294.69;;;7.04;100.00
27429;BME280;14881;48.092;11.574;2023-11-19T03:50:05;95304.16;;;7.01;100.00
27429;BME280;14881;48.092;11.574;2023-11-19T03:52:33;95305.78;;;7.02;100.00
27429;BME280;14881;48.092;11.574;2023-11-19T03:55:09;95310.91;;;6.93;100.00
27429;BME280;14881;48.092;11.574;2023-11-19T03:57:36;95313.06;;;7.07;100.00
27429;BME280;14881;48.092;11.574;2023-11-19T04:00:03;95307.91;;;7.10;100.00
27429;BME280;14881;48.092;11.574;2023-11-19T04:02:34;95297.09;;;7.15;100.00
27429;BME280;14881;48.092;11.574;2023-11-19T04:05:01;95294.66;;;7.19;100.00
27429;BME280;14881;48.092;11.574;2023-11-19T04:07:27;95301.69;;;7.20;100.00
27429;BME280;14881;48.092;11.574;2023-11-19T04:09:54;95293.84;;;7.13;100.00
27429;BME280;14881;48.092;11.574;2023-11-19T04:12:21;95305.47;;;7.19;100.00
27429;BME280;14881;48.092;11.574;2023-11-19T04:14:47;95309.00;;;7.19;100.00
27429;BME280;14881;48.092;11.574;2023-11-19T04:17:25;95300.88;;;7.24;100.00
27429;BME280;14881;48.092;11.574;2023-11-19T04:19:51;95309.22;;;7.28;100.00
27429;BME280;14881;48.092;11.574;2023-11-19T04:22:18;95301.69;;;7.20;100.00
27429;BME280;14881;48.092;11.574;2023-11-19T04:24:44;95307.09;;;7.25;100.00
27429;BME280;14881;48.092;11.574;2023-11-19T04:27:12;95311.38;;;7.31;100.00
27429;BME280;14881;48.092;11.574;2023-11-19T04:29:38;95310.59;;;7.25;100.00
27429;BME280;14881;48.092;11.574;2023-11-19T04:32:05;95314.63;;;7.33;100.00
27429;BME280;14881;48.092;11.574;2023-11-19T04:34:32;95308.72;;;7.26;100.00
27429;BME280;14881;48.092;11.574;2023-11-19T04:36:58;95312.72;;;7.39;100.00
27429;BME280;14881;48.092;11.574;2023-11-19T04:39:39;95315.63;;;7.62;100.00
27429;BME280;14881;48.092;11.574;2023-11-19T04:42:05;95308.78;;;7.90;100.00
27429;BME280;14881;48.092;11.574;2023-11-19T04:44:33;95310.25;;;8.17;100.00
27429;BME280;14881;48.092;11.574;2023-11-19T04:46:59;95311.13;;;8.56;100.00
27429;BME280;14881;48.092;11.574;2023-11-19T04:49:26;95302.59;;;8.73;100.00
27429;BME280;14881;48.092;11.574;2023-11-19T04:51:53;95301.94;;;8.86;100.00
27429;BME280;14881;48.092;11.574;2023-11-19T04:54:19;95298.28;;;9.01;100.00
27429;BME280;14881;48.092;11.574;2023-11-19T04:56:45;95304.72;;;9.10;100.00
27429;BME280;14881;48.092;11.574;2023-11-19T04:59:12;95300.00;;;9.21;100.00
27429;BME280;14881;48.092;11.574;2023-11-19T05:01:39;95305.91;;;9.28;100.00
27429;BME280;14881;48.092;11.574;2023-11-19T05:04:07;95310.50;;;9.32;100.00
27429;BME280;14881;48.092;11.574;2023-11-19T05:06:33;95309.13;;;9.35;100.00
27429;BME280;14881;48.092;11.574;2023-11-19T05:09:01;95301.47;;;9.37;100.00
27429;BME280;14881;48.092;11.574;2023-11-19T05:11:32;95321.78;;;9.39;100.00
27429;BME280;14881;48.092;11.574;2023-11-19T05:13:58;95320.94;;;9.44;100.00
27429;BME280;14881;48.092;11.574;2023-11-19T05:16:25;95314.13;;;9.47;100.00
27429;BME280;14881;48.092;11.574;2023-11-19T05:18:52;95307.38;;;9.44;100.00
27429;BME280;14881;48.092;11.574;2023-11-19T05:21:19;95310.06;;;9.49;100.00
27429;BME280;14881;48.092;11.574;2023-11-19T05:23:45;95322.22;;;9.52;100.00
27429;BME280;14881;48.092;11.574;2023-11-19T05:26:17;95325.97;;;9.56;100.00
27429;BME280;14881;48.092;11.574;2023-11-19T05:28:44;95318.91;;;9.55;100.00
27429;BME280;14881;48.092;11.574;2023-11-19T05:31:10;95324.63;;;9.53;100.00
27429;BME280;14881;48.092;11.574;2023-11-19T05:33:37;95322.50;;;9.50;100.00
27429;BME280;14881;48.092;11.574;2023-11-19T05:36:05;95334.38;;;9.54;100.00
27429;BME280;14881;48.092;11.574;2023-11-19T05:38:31;95324.63;;;9.53;100.00
27429;BME280;14881;48.092;11.574;2023-11-19T05:40:57;95331.75;;;9.49;100.00
27429;BME280;14881;48.092;11.574;2023-11-19T05:43:24;95331.97;;;9.53;100.00
27429;BME280;14881;48.092;11.574;2023-11-19T05:45:50;95343.59;;;9.53;100.00
27429;BME280;14881;48.092;11.574;2023-11-19T05:48:17;95342.81;;;9.53;100.00
27429;BME280;14881;48.092;11.574;2023-11-19T05:50:43;95349.63;;;9.50;100.00
27429;BME280;14881;48.092;11.574;2023-11-19T05:53:11;95347.13;;;9.54;100.00
27429;BME280;14881;48.092;11.574;2023-11-19T05:55:39;95337.63;;;9.56;100.00
27429;BME280;14881;48.092;11.574;2023-11-19T05:58:25;95342.03;;;9.52;100.00
27429;BME280;14881;48.092;11.574;2023-11-19T06:00:52;95340.69;;;9.50;100.00
27429;BME280;14881;48.092;11.574;2023-11-19T06:03:19;95345.50;;;9.53;100.00
27429;BME280;14881;48.092;11.574;2023-11-19T06:05:45;95342.81;;;9.53;100.00
27429;BME280;14881;48.092;11.574;2023-11-19T06:08:12;95327.34;;;9.53;100.00
27429;BME280;14881;48.092;11.574;2023-11-19T06:10:39;95334.91;;;9.56;100.00
27429;BME280;14881;48.092;11.574;2023-11-19T06:13:05;95336.81;;;9.56;100.00
27429;BME280;14881;48.092;11.574;2023-11-19T06:15:33;95332.16;;;9.61;100.00
27429;BME280;14881;48.092;11.574;2023-11-19T06:17:59;95343.53;;;9.63;100.00
27429;BME280;14881;48.092;11.574;2023-11-19T06:20:27;95347.03;;;9.64;100.00
27429;BME280;14881;48.092;11.574;2023-11-19T06:23:08;95347.34;;;9.62;100.00
27429;BME280;14881;48.092;11.574;2023-11-19T06:25:35;95343.75;;;9.67;100.00
27429;BME280;14881;48.092;11.574;2023-11-19T06:28:01;95338.88;;;9.69;100.00
27429;BME280;14881;48.092;11.574;2023-11-19T06:30:28;95340.25;;;9.66;100.00
27429;BME280;14881;48.092;11.574;2023-11-19T06:32:55;95334.25;;;9.69;100.00
27429;BME280;14881;48.092;11.574;2023-11-19T06:35:22;95342.38;;;9.69;100.00
27429;BME280;14881;48.092;11.574;2023-11-19T06:37:48;95335.56;;;9.72;100.00
27429;BME280;14881;48.092;11.574;2023-11-19T06:40:15;95332.56;;;9.73;100.00
27429;BME280;14881;48.092;11.574;2023-11-19T06:42:43;95335.78;;;9.75;100.00
27429;BME280;14881;48.092;11.574;2023-11-19T06:45:09;95340.66;;;9.78;100.00
27429;BME280;14881;48.092;11.574;2023-11-19T06:47:36;95338.44;;;9.81;100.00
27429;BME280;14881;48.092;11.574;2023-11-19T06:50:02;95344.69;;;9.81;100.00
27429;BME280;14881;48.092;11.574;2023-11-19T06:52:31;95351.72;;;9.82;100.00
27429;BME280;14881;48.092;11.574;2023-11-19T06:54:58;95357.97;;;9.83;100.00
27429;BME280;14881;48.092;11.574;2023-11-19T06:57:27;95359.78;;;9.87;100.00
27429;BME280;14881;48.092;11.574;2023-11-19T06:59:55;95351.16;;;9.85;100.00
27429;BME280;14881;48.092;11.574;2023-11-19T07:02:22;95345.72;;;9.85;100.00
27429;BME280;14881;48.092;11.574;2023-11-19T07:04:52;95360.59;;;9.88;100.00
27429;BME280;14881;48.092;11.574;2023-11-19T07:07:19;95359.75;;;9.92;100.00
27429;BME280;14881;48.092;11.574;2023-11-19T07:09:45;95363.50;;;9.96;100.00
27429;BME280;14881;48.092;11.574;2023-11-19T07:12:12;95364.25;;;10.02;100.00
27429;BME280;14881;48.092;11.574;2023-11-19T07:14:40;95357.22;;;10.01;100.00
27429;BME280;14881;48.092;11.574;2023-11-19T07:17:08;95365.06;;;10.02;100.00
27429;BME280;14881;48.092;11.574;2023-11-19T07:19:35;95364.47;;;10.05;100.00
27429;BME280;14881;48.092;11.574;2023-11-19T07:22:02;95366.59;;;10.08;100.00
27429;BME280;14881;48.092;11.574;2023-11-19T07:24:28;95375.81;;;10.12;100.00
27429;BME280;14881;48.092;11.574;2023-11-19T07:26:55;95369.28;;;10.13;100.00
27429;BME280;14881;48.092;11.574;2023-11-19T07:29:21;95369.25;;;10.19;100.00
27429;BME280;14881;48.092;11.574;2023-11-19T07:31:50;95371.34;;;10.22;100.00
27429;BME280;14881;48.092;11.574;2023-11-19T07:34:20;95376.78;;;10.22;100.00
27429;BME280;14881;48.092;11.574;2023-11-19T07:36:47;95383.56;;;10.24;100.00
27429;BME280;14881;48.092;11.574;2023-11-19T07:39:13;95384.53;;;10.33;100.00
27429;BME280;14881;48.092;11.574;2023-11-19T07:41:40;95384.53;;;10.33;100.00
27429;BME280;14881;48.092;11.574;2023-11-19T07:44:06;95398.13;;;10.33;100.00
27429;BME280;14881;48.092;11.574;2023-11-19T07:46:33;95403.53;;;10.33;100.00
27429;BME280;14881;48.092;11.574;2023-11-19T07:48:59;95397.03;;;10.34;100.00
27429;BME280;14881;48.092;11.574;2023-11-19T07:51:26;95396.22;;;10.34;100.00
27429;BME280;14881;48.092;11.574;2023-11-19T07:53:53;95399.44;;;10.36;100.00
27429;BME280;14881;48.092;11.574;2023-11-19T07:56:19;95398.34;;;10.37;100.00
27429;BME280;14881;48.092;11.574;2023-11-19T07:58:45;95401.59;;;10.39;100.00
27429;BME280;14881;48.092;11.574;2023-11-19T08:01:12;95403.19;;;10.40;100.00
27429;BME280;14881;48.092;11.574;2023-11-19T08:03:39;95403.19;;;10.40;100.00
27429;BME280;14881;48.092;11.574;2023-11-19T08:06:06;95409.94;;;10.42;100.00
27429;BME280;14881;48.092;11.574;2023-11-19T08:08:33;95402.84;;;10.46;100.00
27429;BME280;14881;48.092;11.574;2023-11-19T08:11:00;95406.59;;;10.51;100.00
27429;BME280;14881;48.092;11.574;2023-11-19T08:13:26;95404.16;;;10.49;100.00
27429;BME280;14881;48.092;11.574;2023-11-19T08:15:53;95410.63;;;10.53;100.00
27429;BME280;14881;48.092;11.574;2023-11-19T08:18:19;95400.78;;;10.57;100.00
27429;BME280;14881;48.092;11.574;2023-11-19T08:20:46;95404.53;;;10.61;100.00
27429;BME280;14881;48.092;11.574;2023-11-19T08:23:15;95408.00;;;10.67;100.00
27429;BME280;14881;48.092;11.574;2023-11-19T08:25:42;95405.53;;;10.70;100.00
27429;BME280;14881;48.092;11.574;2023-11-19T08:28:10;95402.22;;;10.73;100.00
27429;BME280;14881;48.092;11.574;2023-11-19T08:30:36;95398.31;;;10.79;100.00
27429;BME280;14881;48.092;11.574;2023-11-19T08:33:03;95402.88;;;10.84;100.00
27429;BME280;14881;48.092;11.574;2023-11-19T08:35:29;95404.72;;;10.89;100.00
27429;BME280;14881;48.092;11.574;2023-11-19T08:37:56;95401.38;;;10.92;100.00
27429;BME280;14881;48.092;11.574;2023-11-19T08:40:23;95399.81;;;10.91;100.00
27429;BME280;14881;48.092;11.574;2023-11-19T08:42:50;95411.97;;;10.93;100.00
27429;BME280;14881;48.092;11.574;2023-11-19T08:45:16;95407.56;;;10.97;100.00
27429;BME280;14881;48.092;11.574;2023-11-19T08:47:43;95402.06;;;11.02;100.00
27429;BME280;14881;48.092;11.574;2023-11-19T08:50:11;95400.88;;;11.08;100.00
27429;BME280;14881;48.092;11.574;2023-11-19T08:52:40;95400.22;;;11.16;100.00
27429;BME280;14881;48.092;11.574;2023-11-19T08:55:07;95402.06;;;11.21;100.00
27429;BME280;14881;48.092;11.574;2023-11-19T08:57:35;95399.03;;;11.23;100.00
27429;BME280;14881;48.092;11.574;2023-11-19T09:00:03;95397.72;;;11.20;100.00
27429;BME280;14881;48.092;11.574;2023-11-19T09:02:33;95398.53;;;11.21;100.00
27429;BME280;14881;48.092;11.574;2023-11-19T09:05:00;95402.56;;;11.23;100.00
27429;BME280;14881;48.092;11.574;2023-11-19T09:07:26;95398.22;;;11.22;100.00
27429;BME280;14881;48.092;11.574;2023-11-19T09:09:52;95398.22;;;11.22;100.00
27429;BME280;14881;48.092;11.574;2023-11-19T09:12:19;95404.25;;;11.19;100.00
27429;BME280;14881;48.092;11.574;2023-11-19T09:14:45;95405.66;;;11.16;100.00
27429;BME280;14881;48.092;11.574;2023-11-19T09:17:12;95374.94;;;11.16;100.00
27429;BME280;14881;48.092;11.574;2023-11-19T09:19:39;95397.78;;;11.15;100.00
27429;BME280;14881;48.092;11.574;2023-11-19T09:22:05;95405.81;;;11.25;100.00
27429;BME280;14881;48.092;11.574;2023-11-19T09:24:31;95407.91;;;11.28;100.00
27429;BME280;14881;48.092;11.574;2023-11-19T09:27:32;95417.41;;;11.31;100.00
27429;BME280;14881;48.092;11.574;2023-11-19T09:29:58;95423.28;;;11.38;100.00
27429;BME280;14881;48.092;11.574;2023-11-19T09:32:28;95422.75;;;11.36;100.00
27429;BME280;14881;48.092;11.574;2023-11-19T09:34:54;95414.81;;;11.39;100.00
27429;BME280;14881;48.092;11.574;2023-11-19T09:37:21;95416.63;;;11.44;100.00
27429;BME280;14881;48.092;11.574;2023-11-19T09:39:48;95416.44;;;11.40;100.00
27429;BME280;14881;48.092;11.574;2023-11-19T09:42:14;95433.56;;;11.41;100.00
27429;BME280;14881;48.092;11.574;2023-11-19T09:44:42;95422.16;;;11.39;100.00
27429;BME280;14881;48.092;11.574;2023-11-19T09:47:10;95426.59;;;11.35;100.00
27429;BME280;14881;48.092;11.574;2023-11-19T09:49:38;95425.19;;;11.37;100.00
27429;BME280;14881;48.092;11.574;2023-11-19T09:52:05;95414.22;;;11.42;100.00
27429;BME280;14881;48.092;11.574;2023-11-19T09:54:31;95421.41;;;11.52;100.00
27429;BME280;14881;48.092;11.574;2023-11-19T09:57:09;95407.44;;;11.59;100.00
27429;BME280;14881;48.092;11.574;2023-11-19T09:59:38;95405.63;;;11.68;100.00
27429;BME280;14881;48.092;11.574;2023-11-19T10:02:04;95409.31;;;11.77;100.00
27429;BME280;14881;48.092;11.574;2023-11-19T10:04:35;95395.53;;;11.87;100.00
27429;BME280;14881;48.092;11.574;2023-11-19T10:07:03;95388.66;;;11.90;100.00
27429;BME280;14881;48.092;11.574;2023-11-19T10:09:30;95381.81;;;11.92;100.00
27429;BME280;14881;48.092;11.574;2023-11-19T10:11:56;95378.16;;;11.97;100.00
27429;BME280;14881;48.092;11.574;2023-11-19T10:14:23;95371.22;;;12.04;100.00
27429;BME280;14881;48.092;11.574;2023-11-19T10:16:50;95371.22;;;12.04;100.00
27429;BME280;14881;48.092;11.574;2023-11-19T10:19:19;95368.94;;;12.11;100.00
27429;BME280;14881;48.092;11.574;2023-11-19T10:21:46;95376.69;;;12.18;100.00
27429;BME280;14881;48.092;11.574;2023-11-19T10:24:13;95360.03;;;12.19;100.00
27429;BME280;14881;48.092;11.574;2023-11-19T10:26:56;95358.31;;;12.24;100.00
27429;BME280;14881;48.092;11.574;2023-11-19T10:29:23;95357.72;;;12.40;100.00
27429;BME280;14881;48.092;11.574;2023-11-19T10:31:56;95359.81;;;12.57;100.00
27429;BME280;14881;48.092;11.574;2023-11-19T10:34:25;95343.34;;;12.98;100.00
27429;BME280;14881;48.092;11.574;2023-11-19T10:36:52;95342.78;;;13.10;100.00
27429;BME280;14881;48.092;11.574;2023-11-19T10:39:19;95338.25;;;13.05;100.00
27429;BME280;14881;48.092;11.574;2023-11-19T10:41:47;95341.88;;;13.37;100.00
27429;BME280;14881;48.092;11.574;2023-11-19T10:44:31;95326.59;;;13.58;100.00
27429;BME280;14881;48.092;11.574;2023-11-19T10:46:59;95325.44;;;13.81;100.00
27429;BME280;14881;48.092;11.574;2023-11-19T10:49:25;95311.44;;;14.22;100.00
27429;BME280;14881;48.092;11.574;2023-11-19T10:51:53;95306.63;;;14.28;100.00
27429;BME280;14881;48.092;11.574;2023-11-19T10:54:24;95308.38;;;14.15;100.00
27429;BME280;14881;48.092;11.574;2023-11-19T10:56:54;95295.16;;;14.00;100.00
27429;BME280;14881;48.092;11.574;2023-11-19T10:59:25;95289.78;;;13.86;100.00
27429;BME280;14881;48.092;11.574;2023-11-19T11:02:00;95310.47;;;14.18;100.00
27429;BME280;14881;48.092;11.574;2023-11-19T11:04:30;95293.06;;;14.06;100.00
27429;BME280;14881;48.092;11.574;2023-11-19T11:07:00;95303.69;;;14.07;100.00
27429;BME280;14881;48.092;11.574;2023-11-19T11:09:29;95290.81;;;14.08;100.00
27429;BME280;14881;48.092;11.574;2023-11-19T11:11:57;95288.63;;;14.18;100.00
27429;BME280;14881;48.092;11.574;2023-11-19T11:14:25;95287.25;;;14.47;100.00
27429;BME280;14881;48.092;11.574;2023-11-19T11:16:53;95289.81;;;14.43;100.00
27429;BME280;14881;48.092;11.574;2023-11-19T11:19:20;95289.31;;;14.41;100.00
27429;BME280;14881;48.092;11.574;2023-11-19T11:21:49;95288.19;;;14.42;100.00
27429;BME280;14881;48.092;11.574;2023-11-19T11:24:42;95289.19;;;14.55;100.00
27429;BME280;14881;48.092;11.574;2023-11-19T11:27:34;95284.16;;;14.31;100.00
27429;BME280;14881;48.092;11.574;2023-11-19T11:30:13;95291.59;;;14.56;100.00
27429;BME280;14881;48.092;11.574;2023-11-19T11:32:52;95280.81;;;14.43;100.00
27429;BME280;14881;48.092;11.574;2023-11-19T11:35:30;95284.72;;;14.85;100.00
27429;BME280;14881;48.092;11.574;2023-11-19T11:38:06;95288.06;;;15.08;100.00
27429;BME280;14881;48.092;11.574;2023-11-19T11:40:34;95275.84;;;14.96;100.00
27429;BME280;14881;48.092;11.574;2023-11-19T11:43:00;95269.41;;;15.01;100.00
27429;BME280;14881;48.092;11.574;2023-11-19T11:45:36;95271.94;;;15.32;100.00
27429;BME280;14881;48.092;11.574;2023-11-19T11:48:11;95251.75;;;15.54;100.00
27429;BME280;14881;48.092;11.574;2023-11-19T11:50:53;95253.19;;;15.69;100.00
27429;BME280;14881;48.092;11.574;2023-11-19T11:53:21;95252.56;;;15.63;100.00
27429;BME280;14881;48.092;11.574;2023-11-19T11:55:55;95238.78;;;15.80;100.00
27429;BME280;14881;48.092;11.574;2023-11-19T11:58:26;95245.00;;;15.98;100.00
27429;BME280;14881;48.092;11.574;2023-11-19T12:00:53;95259.16;;;16.00;100.00
27429;BME280;14881;48.092;11.574;2023-11-19T12:03:20;95261.91;;;16.00;100.00
27429;BME280;14881;48.092;11.574;2023-11-19T12:05:48;95245.94;;;16.02;100.00
27429;BME280;14881;48.092;11.574;2023-11-19T12:08:16;95254.00;;;16.07;100.00
27429;BME280;14881;48.092;11.574;2023-11-19T12:10:52;95259.94;;;15.71;100.00
27429;BME280;14881;48.092;11.574;2023-11-19T12:13:20;95261.91;;;15.53;100.00
27429;BME280;14881;48.092;11.574;2023-11-19T12:16:10;95242.34;;;15.81;100.00
27429;BME280;14881;48.092;11.574;2023-11-19T12:18:39;95258.59;;;15.86;100.00
27429;BME280;14881;48.092;11.574;2023-11-19T12:21:07;95258.13;;;16.13;100.00
27429;BME280;14881;48.092;11.574;2023-11-19T12:23:37;95257.31;;;16.13;100.00
27429;BME280;14881;48.092;11.574;2023-11-19T12:26:21;95253.28;;;16.19;100.00
27429;BME280;14881;48.092;11.574;2023-11-19T12:28:57;95279.94;;;15.72;100.00
27429;BME280;14881;48.092;11.574;2023-11-19T12:31:24;95259.41;;;15.14;100.00
27429;BME280;14881;48.092;11.574;2023-11-19T12:33:51;95251.41;;;14.83;100.00
27429;BME280;14881;48.092;11.574;2023-11-19T12:36:18;95244.81;;;14.75;100.00
27429;BME280;14881;48.092;11.574;2023-11-19T12:38:45;95247.53;;;14.92;100.00
27429;BME280;14881;48.092;11.574;2023-11-19T12:41:12;95254.94;;;14.83;100.00
27429;BME280;14881;48.092;11.574;2023-11-19T12:43:48;95232.91;;;14.62;100.00
27429;BME280;14881;48.092;11.574;2023-11-19T12:46:21;95231.13;;;14.58;100.00
27429;BME280;14881;48.092;11.574;2023-11-19T12:48:49;95250.44;;;14.70;100.00
27429;BME280;14881;48.092;11.574;2023-11-19T12:51:16;95233.22;;;14.61;100.00